sensor_id;sensor_type;location;lat;lon;timestamp;temperature;humidity
21627;DHT22;10975;47.872;12.972;2023-07-20T00:01:51;18.60;99.90
21627;DHT22;10975;47.872;12.972;2023-07-20T00:04:17;18.60;99.90
21627;DHT22;10975;47.872;12.972;2023-07-20T00:06:44;18.70;99.90
21627;DHT22;10975;47.872;12.972;2023-07-20T00:09:12;18.60;99.90
21627;DHT22;10975;47.872;12.972;2023-07-20T00:11:38;18.60;99.90
21627;DHT22;10975;47.872;12.972;2023-07-20T00:14:05;18.60;99.90
21627;DHT22;10975;47.872;12.972;2023-07-20T00:16:32;18.60;99.90
21627;DHT22;10975;47.872;12.972;2023-07-20T00:18:59;18.60;99.90
21627;DHT22;10975;47.872;12.972;2023-07-20T00:21:26;18.60;99.90
21627;DHT22;10975;47.872;12.972;2023-07-20T00:23:53;18.60;99.90
21627;DHT22;10975;47.872;12.972;2023-07-20T00:26:19;18.60;99.90
21627;DHT22;10975;47.872;12.972;2023-07-20T00:28:48;18.60;99.90
21627;DHT22;10975;47.872;12.972;2023-07-20T00:31:15;18.60;99.90
21627;DHT22;10975;47.872;12.972;2023-07-20T00:33:44;18.60;99.90
21627;DHT22;10975;47.872;12.972;2023-07-20T00:36:10;18.60;99.90
21627;DHT22;10975;47.872;12.972;2023-07-20T00:38:37;18.70;99.90
21627;DHT22;10975;47.872;12.972;2023-07-20T00:41:04;18.70;99.90
21627;DHT22;10975;47.872;12.972;2023-07-20T00:43:31;18.70;99.90
21627;DHT22;10975;47.872;12.972;2023-07-20T00:46:00;18.60;99.90
21627;DHT22;10975;47.872;12.972;2023-07-20T00:48:27;18.60;99.90
21627;DHT22;10975;47.872;12.972;2023-07-20T00:50:53;18.60;99.90
21627;DHT22;10975;47.872;12.972;2023-07-20T00:53:23;18.60;99.90
21627;DHT22;10975;47.872;12.972;2023-07-20T00:55:50;18.60;99.90
21627;DHT22;10975;47.872;12.972;2023-07-20T00:58:17;18.50;99.90
21627;DHT22;10975;47.872;12.972;2023-07-20T01:00:44;18.50;99.90
21627;DHT22;10975;47.872;12.972;2023-07-20T01:03:11;18.50;99.90
21627;DHT22;10975;47.872;12.972;2023-07-20T01:05:42;18.50;99.90
21627;DHT22;10975;47.872;12.972;2023-07-20T01:09:00;18.40;99.90
21627;DHT22;10975;47.872;12.972;2023-07-20T01:11:10;18.40;99.90
21627;DHT22;10975;47.872;12.972;2023-07-20T01:13:39;18.20;99.90
21627;DHT22;10975;47.872;12.972;2023-07-20T01:16:06;18.20;99.90
21627;DHT22;10975;47.872;12.972;2023-07-20T01:18:33;18.20;99.90
21627;DHT22;10975;47.872;12.972;2023-07-20T01:21:01;18.30;99.90
21627;DHT22;10975;47.872;12.972;2023-07-20T01:28:51;18.30;99.90
21627;DHT22;10975;47.872;12.972;2023-07-20T01:31:24;18.30;99.90
21627;DHT22;10975;47.872;12.972;2023-07-20T01:33:52;18.30;99.90
21627;DHT22;10975;47.872;12.972;2023-07-20T01:36:20;18.30;99.90
21627;DHT22;10975;47.872;12.972;2023-07-20T01:38:48;18.30;99.90
21627;DHT22;10975;47.872;12.972;2023-07-20T01:41:15;18.40;99.90
21627;DHT22;10975;47.872;12.972;2023-07-20T01:43:43;18.40;99.90
21627;DHT22;10975;47.872;12.972;2023-07-20T01:46:09;18.40;99.90
21627;DHT22;10975;47.872;12.972;2023-07-20T01:48:36;18.40;99.90
21627;DHT22;10975;47.872;12.972;2023-07-20T01:51:03;18.40;99.90
21627;DHT22;10975;47.872;12.972;2023-07-20T01:53:30;18.40;99.90
21627;DHT22;10975;47.872;12.972;2023-07-20T01:55:56;18.50;99.90
21627;DHT22;10975;47.872;12.972;2023-07-20T01:58:23;18.40;99.90
21627;DHT22;10975;47.872;12.972;2023-07-20T02:00:51;18.40;99.90
21627;DHT22;10975;47.872;12.972;2023-07-20T02:03:18;18.40;99.90
21627;DHT22;10975;47.872;12.972;2023-07-20T02:05:44;18.40;99.90
21627;DHT22;10975;47.872;12.972;2023-07-20T02:08:11;18.40;99.90
21627;DHT22;10975;47.872;12.972;2023-07-20T02:10:38;18.40;99.90
21627;DHT22;10975;47.872;12.972;2023-07-20T02:13:05;18.30;99.90
21627;DHT22;10975;47.872;12.972;2023-07-20T02:15:32;18.30;99.90
21627;DHT22;10975;47.872;12.972;2023-07-20T02:17:58;18.30;99.90
21627;DHT22;10975;47.872;12.972;2023-07-20T02:20:25;18.30;99.90
21627;DHT22;10975;47.872;12.972;2023-07-20T02:22:52;18.30;99.90
21627;DHT22;10975;47.872;12.972;2023-07-20T02:25:19;18.30;99.90
21627;DHT22;10975;47.872;12.972;2023-07-20T02:27:45;18.30;99.90
21627;DHT22;10975;47.872;12.972;2023-07-20T02:30:12;18.30;99.90
21627;DHT22;10975;47.872;12.972;2023-07-20T02:32:40;18.20;99.90
21627;DHT22;10975;47.872;12.972;2023-07-20T02:35:07;18.20;99.90
21627;DHT22;10975;47.872;12.972;2023-07-20T02:37:33;18.20;99.90
21627;DHT22;10975;47.872;12.972;2023-07-20T02:40:00;18.20;99.90
21627;DHT22;10975;47.872;12.972;2023-07-20T02:42:27;18.20;99.90
21627;DHT22;10975;47.872;12.972;2023-07-20T02:44:54;18.20;99.90
21627;DHT22;10975;47.872;12.972;2023-07-20T02:47:21;18.10;99.90
21627;DHT22;10975;47.872;12.972;2023-07-20T02:49:47;18.10;99.90
21627;DHT22;10975;47.872;12.972;2023-07-20T02:52:14;18.10;99.90
21627;DHT22;10975;47.872;12.972;2023-07-20T02:54:41;18.10;99.90
21627;DHT22;10975;47.872;12.972;2023-07-20T02:57:07;18.10;99.90
21627;DHT22;10975;47.872;12.972;2023-07-20T02:59:34;18.10;99.90
21627;DHT22;10975;47.872;12.972;2023-07-20T03:02:01;18.10;99.90
21627;DHT22;10975;47.872;12.972;2023-07-20T03:04:27;18.10;99.90
21627;DHT22;10975;47.872;12.972;2023-07-20T03:06:54;18.00;99.90
21627;DHT22;10975;47.872;12.972;2023-07-20T03:09:21;18.00;99.90
21627;DHT22;10975;47.872;12.972;2023-07-20T03:11:49;18.00;99.90
21627;DHT22;10975;47.872;12.972;2023-07-20T03:14:16;17.90;99.90
21627;DHT22;10975;47.872;12.972;2023-07-20T03:16:42;17.90;99.90
21627;DHT22;10975;47.872;12.972;2023-07-20T03:19:09;17.90;99.90
21627;DHT22;10975;47.872;12.972;2023-07-20T03:21:36;17.80;99.90
21627;DHT22;10975;47.872;12.972;2023-07-20T03:24:07;17.90;99.90
21627;DHT22;10975;47.872;12.972;2023-07-20T03:26:35;17.90;99.90
21627;DHT22;10975;47.872;12.972;2023-07-20T03:29:02;18.00;99.90
21627;DHT22;10975;47.872;12.972;2023-07-20T03:31:29;18.00;99.90
21627;DHT22;10975;47.872;12.972;2023-07-20T03:33:55;18.00;99.90
21627;DHT22;10975;47.872;12.972;2023-07-20T03:36:22;18.00;99.90
21627;DHT22;10975;47.872;12.972;2023-07-20T03:38:49;18.10;99.90
21627;DHT22;10975;47.872;12.972;2023-07-20T03:41:16;18.10;99.90
21627;DHT22;10975;47.872;12.972;2023-07-20T03:43:43;18.10;99.90
21627;DHT22;10975;47.872;12.972;2023-07-20T03:46:10;18.20;99.90
21627;DHT22;10975;47.872;12.972;2023-07-20T03:48:36;18.20;99.90
21627;DHT22;10975;47.872;12.972;2023-07-20T03:51:03;18.20;99.90
21627;DHT22;10975;47.872;12.972;2023-07-20T03:53:30;18.20;99.90
21627;DHT22;10975;47.872;12.972;2023-07-20T03:55:58;18.30;99.90
21627;DHT22;10975;47.872;12.972;2023-07-20T03:58:25;18.20;99.90
21627;DHT22;10975;47.872;12.972;2023-07-20T04:00:51;18.10;99.90
21627;DHT22;10975;47.872;12.972;2023-07-20T04:03:18;18.10;99.90
21627;DHT22;10975;47.872;12.972;2023-07-20T04:05:45;18.20;99.90
21627;DHT22;10975;47.872;12.972;2023-07-20T04:08:12;18.20;99.90
21627;DHT22;10975;47.872;12.972;2023-07-20T04:10:42;18.20;99.90
21627;DHT22;10975;47.872;12.972;2023-07-20T04:13:09;18.20;99.90
21627;DHT22;10975;47.872;12.972;2023-07-20T04:15:36;18.20;99.90
21627;DHT22;10975;47.872;12.972;2023-07-20T04:18:03;18.20;99.90
21627;DHT22;10975;47.872;12.972;2023-07-20T04:20:29;18.30;99.90
21627;DHT22;10975;47.872;12.972;2023-07-20T04:22:56;18.20;99.90
21627;DHT22;10975;47.872;12.972;2023-07-20T04:25:23;18.30;99.90
21627;DHT22;10975;47.872;12.972;2023-07-20T04:27:49;18.30;99.90
21627;DHT22;10975;47.872;12.972;2023-07-20T04:30:18;18.30;99.90
21627;DHT22;10975;47.872;12.972;2023-07-20T04:32:49;18.30;99.90
21627;DHT22;10975;47.872;12.972;2023-07-20T04:35:58;18.30;99.90
21627;DHT22;10975;47.872;12.972;2023-07-20T04:38:06;18.30;99.90
21627;DHT22;10975;47.872;12.972;2023-07-20T04:40:33;18.30;99.90
21627;DHT22;10975;47.872;12.972;2023-07-20T04:43:00;18.20;99.90
21627;DHT22;10975;47.872;12.972;2023-07-20T04:45:26;18.10;99.90
21627;DHT22;10975;47.872;12.972;2023-07-20T04:47:53;18.10;99.90
21627;DHT22;10975;47.872;12.972;2023-07-20T04:53:51;18.00;99.90
21627;DHT22;10975;47.872;12.972;2023-07-20T04:56:17;18.00;99.90
21627;DHT22;10975;47.872;12.972;2023-07-20T04:58:44;18.00;99.90
21627;DHT22;10975;47.872;12.972;2023-07-20T05:01:11;18.00;99.90
21627;DHT22;10975;47.872;12.972;2023-07-20T05:03:38;18.00;99.90
21627;DHT22;10975;47.872;12.972;2023-07-20T05:06:06;18.00;99.90
21627;DHT22;10975;47.872;12.972;2023-07-20T05:08:32;18.10;99.90
21627;DHT22;10975;47.872;12.972;2023-07-20T05:11:00;18.10;99.90
21627;DHT22;10975;47.872;12.972;2023-07-20T05:13:26;18.20;99.90
21627;DHT22;10975;47.872;12.972;2023-07-20T05:15:53;18.20;99.90
21627;DHT22;10975;47.872;12.972;2023-07-20T05:18:20;18.20;99.90
21627;DHT22;10975;47.872;12.972;2023-07-20T05:20:47;18.30;99.90
21627;DHT22;10975;47.872;12.972;2023-07-20T05:23:14;18.30;99.90
21627;DHT22;10975;47.872;12.972;2023-07-20T05:25:41;18.20;99.90
21627;DHT22;10975;47.872;12.972;2023-07-20T05:28:08;18.20;99.90
21627;DHT22;10975;47.872;12.972;2023-07-20T05:30:34;18.10;99.90
21627;DHT22;10975;47.872;12.972;2023-07-20T05:33:01;18.20;99.90
21627;DHT22;10975;47.872;12.972;2023-07-20T05:35:28;18.30;99.90
21627;DHT22;10975;47.872;12.972;2023-07-20T05:37:55;18.30;99.90
21627;DHT22;10975;47.872;12.972;2023-07-20T05:40:21;18.30;99.90
21627;DHT22;10975;47.872;12.972;2023-07-20T05:42:48;18.40;99.90
21627;DHT22;10975;47.872;12.972;2023-07-20T05:45:18;18.50;99.90
21627;DHT22;10975;47.872;12.972;2023-07-20T05:47:45;18.50;99.90
21627;DHT22;10975;47.872;12.972;2023-07-20T05:50:12;18.50;99.90
21627;DHT22;10975;47.872;12.972;2023-07-20T05:52:39;18.70;99.90
21627;DHT22;10975;47.872;12.972;2023-07-20T05:55:07;18.70;99.90
21627;DHT22;10975;47.872;12.972;2023-07-20T05:57:34;18.60;99.90
21627;DHT22;10975;47.872;12.972;2023-07-20T06:00:02;18.50;99.90
21627;DHT22;10975;47.872;12.972;2023-07-20T06:02:29;18.40;99.90
21627;DHT22;10975;47.872;12.972;2023-07-20T06:04:56;18.20;99.90
21627;DHT22;10975;47.872;12.972;2023-07-20T06:07:22;18.10;99.90
21627;DHT22;10975;47.872;12.972;2023-07-20T06:09:49;18.10;99.90
21627;DHT22;10975;47.872;12.972;2023-07-20T06:12:16;18.00;99.90
21627;DHT22;10975;47.872;12.972;2023-07-20T06:14:43;18.00;99.90
21627;DHT22;10975;47.872;12.972;2023-07-20T06:17:09;18.00;99.90
21627;DHT22;10975;47.872;12.972;2023-07-20T06:19:36;18.00;99.90
21627;DHT22;10975;47.872;12.972;2023-07-20T06:22:03;18.00;99.90
21627;DHT22;10975;47.872;12.972;2023-07-20T06:24:29;18.00;99.90
21627;DHT22;10975;47.872;12.972;2023-07-20T06:26:56;17.90;99.90
21627;DHT22;10975;47.872;12.972;2023-07-20T06:29:23;17.90;99.90
21627;DHT22;10975;47.872;12.972;2023-07-20T06:31:49;17.80;99.90
21627;DHT22;10975;47.872;12.972;2023-07-20T06:34:17;17.90;99.90
21627;DHT22;10975;47.872;12.972;2023-07-20T06:36:44;17.90;99.90
21627;DHT22;10975;47.872;12.972;2023-07-20T06:39:10;17.80;99.90
21627;DHT22;10975;47.872;12.972;2023-07-20T06:41:40;17.90;99.90
21627;DHT22;10975;47.872;12.972;2023-07-20T06:44:08;17.90;99.90
21627;DHT22;10975;47.872;12.972;2023-07-20T06:46:35;18.00;99.90
21627;DHT22;10975;47.872;12.972;2023-07-20T06:49:02;18.00;99.90
21627;DHT22;10975;47.872;12.972;2023-07-20T06:51:31;18.10;99.90
21627;DHT22;10975;47.872;12.972;2023-07-20T06:53:58;18.20;99.90
21627;DHT22;10975;47.872;12.972;2023-07-20T06:56:24;18.10;99.90
21627;DHT22;10975;47.872;12.972;2023-07-20T06:58:53;18.20;99.90
21627;DHT22;10975;47.872;12.972;2023-07-20T07:01:20;18.20;99.90
21627;DHT22;10975;47.872;12.972;2023-07-20T07:03:48;18.20;99.90
21627;DHT22;10975;47.872;12.972;2023-07-20T07:06:19;18.20;99.90
21627;DHT22;10975;47.872;12.972;2023-07-20T07:08:48;18.20;99.90
21627;DHT22;10975;47.872;12.972;2023-07-20T07:11:15;18.20;99.90
21627;DHT22;10975;47.872;12.972;2023-07-20T07:13:41;18.30;99.90
21627;DHT22;10975;47.872;12.972;2023-07-20T07:16:08;18.40;99.90
21627;DHT22;10975;47.872;12.972;2023-07-20T07:18:35;18.40;99.90
21627;DHT22;10975;47.872;12.972;2023-07-20T07:21:02;18.60;99.90
21627;DHT22;10975;47.872;12.972;2023-07-20T07:23:29;18.70;99.90
21627;DHT22;10975;47.872;12.972;2023-07-20T07:25:55;18.80;99.90
21627;DHT22;10975;47.872;12.972;2023-07-20T07:28:22;18.90;99.90
21627;DHT22;10975;47.872;12.972;2023-07-20T07:30:49;18.90;99.90
21627;DHT22;10975;47.872;12.972;2023-07-20T07:33:16;19.00;99.90
21627;DHT22;10975;47.872;12.972;2023-07-20T07:35:42;19.00;99.90
21627;DHT22;10975;47.872;12.972;2023-07-20T07:38:09;18.80;99.90
21627;DHT22;10975;47.872;12.972;2023-07-20T07:40:57;18.80;99.90
21627;DHT22;10975;47.872;12.972;2023-07-20T07:43:24;18.80;99.90
21627;DHT22;10975;47.872;12.972;2023-07-20T07:45:53;18.90;99.90
21627;DHT22;10975;47.872;12.972;2023-07-20T07:48:19;18.90;99.90
21627;DHT22;10975;47.872;12.972;2023-07-20T07:50:47;19.10;99.90
21627;DHT22;10975;47.872;12.972;2023-07-20T07:53:14;19.20;99.90
21627;DHT22;10975;47.872;12.972;2023-07-20T07:55:41;19.20;99.90
21627;DHT22;10975;47.872;12.972;2023-07-20T07:58:07;19.30;99.90
21627;DHT22;10975;47.872;12.972;2023-07-20T08:00:35;19.30;99.90
21627;DHT22;10975;47.872;12.972;2023-07-20T08:03:01;19.30;99.90
21627;DHT22;10975;47.872;12.972;2023-07-20T08:05:28;19.40;99.90
21627;DHT22;10975;47.872;12.972;2023-07-20T08:07:55;19.40;99.90
21627;DHT22;10975;47.872;12.972;2023-07-20T08:10:21;19.50;99.90
21627;DHT22;10975;47.872;12.972;2023-07-20T08:12:49;19.60;99.90
21627;DHT22;10975;47.872;12.972;2023-07-20T08:15:15;19.70;99.90
21627;DHT22;10975;47.872;12.972;2023-07-20T08:17:42;19.90;99.90
21627;DHT22;10975;47.872;12.972;2023-07-20T08:20:12;20.00;99.90
21627;DHT22;10975;47.872;12.972;2023-07-20T08:22:39;20.30;99.90
21627;DHT22;10975;47.872;12.972;2023-07-20T08:25:06;20.50;99.90
21627;DHT22;10975;47.872;12.972;2023-07-20T08:27:33;20.60;99.90
21627;DHT22;10975;47.872;12.972;2023-07-20T08:29:59;20.70;99.90
21627;DHT22;10975;47.872;12.972;2023-07-20T08:32:26;20.90;99.90
21627;DHT22;10975;47.872;12.972;2023-07-20T08:34:53;20.90;99.90
21627;DHT22;10975;47.872;12.972;2023-07-20T08:37:20;20.70;99.90
21627;DHT22;10975;47.872;12.972;2023-07-20T08:39:47;20.50;99.90
21627;DHT22;10975;47.872;12.972;2023-07-20T08:42:14;20.40;99.90
21627;DHT22;10975;47.872;12.972;2023-07-20T08:44:41;20.30;99.90
21627;DHT22;10975;47.872;12.972;2023-07-20T08:47:09;20.30;99.90
21627;DHT22;10975;47.872;12.972;2023-07-20T08:49:36;20.40;99.90
21627;DHT22;10975;47.872;12.972;2023-07-20T08:52:04;20.60;99.90
21627;DHT22;10975;47.872;12.972;2023-07-20T08:54:31;20.70;99.90
21627;DHT22;10975;47.872;12.972;2023-07-20T08:57:03;20.50;99.90
21627;DHT22;10975;47.872;12.972;2023-07-20T08:59:31;20.60;99.90
21627;DHT22;10975;47.872;12.972;2023-07-20T09:01:58;20.70;99.90
21627;DHT22;10975;47.872;12.972;2023-07-20T09:04:25;20.90;99.90
21627;DHT22;10975;47.872;12.972;2023-07-20T09:06:52;21.20;99.90
21627;DHT22;10975;47.872;12.972;2023-07-20T09:09:19;21.50;99.90
21627;DHT22;10975;47.872;12.972;2023-07-20T09:11:49;21.40;99.90
21627;DHT22;10975;47.872;12.972;2023-07-20T09:14:16;21.40;99.90
21627;DHT22;10975;47.872;12.972;2023-07-20T09:16:46;21.40;99.90
21627;DHT22;10975;47.872;12.972;2023-07-20T09:19:17;21.30;99.90
21627;DHT22;10975;47.872;12.972;2023-07-20T09:21:45;21.20;99.90
21627;DHT22;10975;47.872;12.972;2023-07-20T09:24:13;21.10;99.90
21627;DHT22;10975;47.872;12.972;2023-07-20T09:26:41;21.10;99.90
21627;DHT22;10975;47.872;12.972;2023-07-20T09:29:08;21.30;99.90
21627;DHT22;10975;47.872;12.972;2023-07-20T09:31:38;21.10;99.90
21627;DHT22;10975;47.872;12.972;2023-07-20T09:34:07;21.20;99.90
21627;DHT22;10975;47.872;12.972;2023-07-20T09:36:35;21.20;99.90
21627;DHT22;10975;47.872;12.972;2023-07-20T09:39:05;21.10;99.90
21627;DHT22;10975;47.872;12.972;2023-07-20T09:41:39;20.90;99.90
21627;DHT22;10975;47.872;12.972;2023-07-20T09:44:13;20.80;99.90
21627;DHT22;10975;47.872;12.972;2023-07-20T09:49:13;20.60;99.90
21627;DHT22;10975;47.872;12.972;2023-07-20T09:51:44;20.50;99.90
21627;DHT22;10975;47.872;12.972;2023-07-20T09:54:11;20.60;99.90
21627;DHT22;10975;47.872;12.972;2023-07-20T09:56:37;20.90;99.90
21627;DHT22;10975;47.872;12.972;2023-07-20T09:59:04;21.10;99.90
21627;DHT22;10975;47.872;12.972;2023-07-20T10:01:31;21.20;99.90
21627;DHT22;10975;47.872;12.972;2023-07-20T10:03:59;21.30;99.90
21627;DHT22;10975;47.872;12.972;2023-07-20T10:06:28;21.40;99.90
21627;DHT22;10975;47.872;12.972;2023-07-20T10:08:56;21.40;99.90
21627;DHT22;10975;47.872;12.972;2023-07-20T10:11:24;21.50;99.90
21627;DHT22;10975;47.872;12.972;2023-07-20T10:13:53;21.70;99.90
21627;DHT22;10975;47.872;12.972;2023-07-20T10:16:22;21.90;99.90
21627;DHT22;10975;47.872;12.972;2023-07-20T10:21:25;21.70;99.90
21627;DHT22;10975;47.872;12.972;2023-07-20T10:23:58;21.60;99.90
21627;DHT22;10975;47.872;12.972;2023-07-20T10:26:27;21.50;99.90
21627;DHT22;10975;47.872;12.972;2023-07-20T10:28:53;21.60;99.90
21627;DHT22;10975;47.872;12.972;2023-07-20T10:31:20;21.80;99.90
21627;DHT22;10975;47.872;12.972;2023-07-20T10:33:50;21.70;99.90
21627;DHT22;10975;47.872;12.972;2023-07-20T10:36:24;21.60;99.90
21627;DHT22;10975;47.872;12.972;2023-07-20T10:38:55;21.90;99.90
21627;DHT22;10975;47.872;12.972;2023-07-20T10:41:31;22.30;99.90
21627;DHT22;10975;47.872;12.972;2023-07-20T10:44:03;22.20;99.90
21627;DHT22;10975;47.872;12.972;2023-07-20T10:46:43;22.50;99.90
21627;DHT22;10975;47.872;12.972;2023-07-20T10:49:12;22.50;99.90
21627;DHT22;10975;47.872;12.972;2023-07-20T10:51:40;22.80;99.90
21627;DHT22;10975;47.872;12.972;2023-07-20T10:54:08;22.50;99.90
21627;DHT22;10975;47.872;12.972;2023-07-20T10:56:35;22.40;99.90
21627;DHT22;10975;47.872;12.972;2023-07-20T10:59:02;22.40;99.90
21627;DHT22;10975;47.872;12.972;2023-07-20T11:01:43;22.50;99.90
21627;DHT22;10975;47.872;12.972;2023-07-20T11:04:10;22.40;99.90
21627;DHT22;10975;47.872;12.972;2023-07-20T11:06:37;22.60;99.90
21627;DHT22;10975;47.872;12.972;2023-07-20T11:11:43;22.60;99.90
21627;DHT22;10975;47.872;12.972;2023-07-20T11:14:11;22.80;99.90
21627;DHT22;10975;47.872;12.972;2023-07-20T11:16:46;22.80;99.90
21627;DHT22;10975;47.872;12.972;2023-07-20T11:19:14;22.90;99.90
21627;DHT22;10975;47.872;12.972;2023-07-20T11:22:02;22.90;99.90
21627;DHT22;10975;47.872;12.972;2023-07-20T11:24:31;23.10;99.90
21627;DHT22;10975;47.872;12.972;2023-07-20T11:26:58;23.30;99.90
21627;DHT22;10975;47.872;12.972;2023-07-20T11:29:25;23.30;99.90
21627;DHT22;10975;47.872;12.972;2023-07-20T11:31:56;23.40;99.90
21627;DHT22;10975;47.872;12.972;2023-07-20T11:34:23;23.70;99.90
21627;DHT22;10975;47.872;12.972;2023-07-20T11:36:50;23.80;99.90
21627;DHT22;10975;47.872;12.972;2023-07-20T11:39:21;23.50;99.90
21627;DHT22;10975;47.872;12.972;2023-07-20T11:41:48;23.30;99.90
21627;DHT22;10975;47.872;12.972;2023-07-20T11:44:16;23.20;99.90
21627;DHT22;10975;47.872;12.972;2023-07-20T11:46:43;23.20;99.90
21627;DHT22;10975;47.872;12.972;2023-07-20T11:49:13;23.30;99.90
21627;DHT22;10975;47.872;12.972;2023-07-20T11:51:40;23.10;99.90
21627;DHT22;10975;47.872;12.972;2023-07-20T11:54:07;23.00;99.90
21627;DHT22;10975;47.872;12.972;2023-07-20T11:56:34;22.80;99.90
21627;DHT22;10975;47.872;12.972;2023-07-20T11:59:01;22.90;99.90
21627;DHT22;10975;47.872;12.972;2023-07-20T12:01:29;22.80;99.90
21627;DHT22;10975;47.872;12.972;2023-07-20T12:04:01;22.80;99.90
21627;DHT22;10975;47.872;12.972;2023-07-20T12:06:30;22.90;99.90
21627;DHT22;10975;47.872;12.972;2023-07-20T12:08:59;22.90;99.90
21627;DHT22;10975;47.872;12.972;2023-07-20T12:11:36;23.10;99.90
21627;DHT22;10975;47.872;12.972;2023-07-20T12:14:03;23.20;99.90
21627;DHT22;10975;47.872;12.972;2023-07-20T12:16:42;23.10;99.90
21627;DHT22;10975;47.872;12.972;2023-07-20T12:19:10;23.20;99.90
21627;DHT22;10975;47.872;12.972;2023-07-20T12:21:37;23.20;99.90
21627;DHT22;10975;47.872;12.972;2023-07-20T12:24:04;23.40;99.90
21627;DHT22;10975;47.872;12.972;2023-07-20T12:26:32;23.30;99.90
21627;DHT22;10975;47.872;12.972;2023-07-20T12:28:59;23.30;99.90
21627;DHT22;10975;47.872;12.972;2023-07-20T12:31:26;23.30;99.90
21627;DHT22;10975;47.872;12.972;2023-07-20T12:33:53;23.50;99.90
21627;DHT22;10975;47.872;12.972;2023-07-20T12:36:21;23.80;99.90
21627;DHT22;10975;47.872;12.972;2023-07-20T12:38:49;23.80;99.90
21627;DHT22;10975;47.872;12.972;2023-07-20T12:41:15;23.70;99.90
21627;DHT22;10975;47.872;12.972;2023-07-20T12:43:43;23.70;99.90
21627;DHT22;10975;47.872;12.972;2023-07-20T12:46:10;24.00;99.90
21627;DHT22;10975;47.872;12.972;2023-07-20T12:48:38;23.60;99.90
21627;DHT22;10975;47.872;12.972;2023-07-20T12:51:08;23.40;99.90
21627;DHT22;10975;47.872;12.972;2023-07-20T12:53:35;23.60;99.90
21627;DHT22;10975;47.872;12.972;2023-07-20T12:56:02;23.60;99.90
21627;DHT22;10975;47.872;12.972;2023-07-20T12:58:48;23.30;99.90
21627;DHT22;10975;47.872;12.972;2023-07-20T13:01:16;23.20;99.90
21627;DHT22;10975;47.872;12.972;2023-07-20T13:03:43;23.30;99.90
21627;DHT22;10975;47.872;12.972;2023-07-20T13:06:13;23.20;99.90
21627;DHT22;10975;47.872;12.972;2023-07-20T13:08:42;23.40;99.90
21627;DHT22;10975;47.872;12.972;2023-07-20T13:11:09;23.60;99.90
21627;DHT22;10975;47.872;12.972;2023-07-20T13:13:36;23.80;99.90
21627;DHT22;10975;47.872;12.972;2023-07-20T13:16:02;23.90;99.90
21627;DHT22;10975;47.872;12.972;2023-07-20T13:18:30;23.90;99.90
21627;DHT22;10975;47.872;12.972;2023-07-20T13:20:57;23.60;99.90
21627;DHT22;10975;47.872;12.972;2023-07-20T13:23:23;23.40;99.90
21627;DHT22;10975;47.872;12.972;2023-07-20T13:25:50;23.70;99.90
21627;DHT22;10975;47.872;12.972;2023-07-20T13:28:17;23.70;99.90
21627;DHT22;10975;47.872;12.972;2023-07-20T13:30:43;23.80;99.90
21627;DHT22;10975;47.872;12.972;2023-07-20T13:33:12;23.80;99.90
21627;DHT22;10975;47.872;12.972;2023-07-20T13:35:44;23.80;99.90
21627;DHT22;10975;47.872;12.972;2023-07-20T13:38:13;23.60;99.90
21627;DHT22;10975;47.872;12.972;2023-07-20T13:40:40;23.40;99.90
21627;DHT22;10975;47.872;12.972;2023-07-20T13:43:07;23.60;99.90
21627;DHT22;10975;47.872;12.972;2023-07-20T13:45:34;23.80;99.90
21627;DHT22;10975;47.872;12.972;2023-07-20T13:48:00;24.00;99.90
21627;DHT22;10975;47.872;12.972;2023-07-20T13:50:32;24.00;99.90
21627;DHT22;10975;47.872;12.972;2023-07-20T13:53:01;24.00;99.90
21627;DHT22;10975;47.872;12.972;2023-07-20T13:55:32;24.00;99.90
21627;DHT22;10975;47.872;12.972;2023-07-20T13:58:03;24.10;99.90
21627;DHT22;10975;47.872;12.972;2023-07-20T14:00:30;24.00;99.90
21627;DHT22;10975;47.872;12.972;2023-07-20T14:03:00;24.10;99.90
21627;DHT22;10975;47.872;12.972;2023-07-20T14:05:30;24.10;99.90
21627;DHT22;10975;47.872;12.972;2023-07-20T14:08:00;24.20;99.90
21627;DHT22;10975;47.872;12.972;2023-07-20T14:10:26;24.40;99.90
21627;DHT22;10975;47.872;12.972;2023-07-20T14:12:53;24.20;99.90
21627;DHT22;10975;47.872;12.972;2023-07-20T14:15:19;24.20;99.90
21627;DHT22;10975;47.872;12.972;2023-07-20T14:17:46;24.30;99.90
21627;DHT22;10975;47.872;12.972;2023-07-20T14:20:13;24.40;99.90
21627;DHT22;10975;47.872;12.972;2023-07-20T14:22:42;24.20;99.90
21627;DHT22;10975;47.872;12.972;2023-07-20T14:25:10;24.30;99.90
21627;DHT22;10975;47.872;12.972;2023-07-20T14:27:37;24.40;99.90
21627;DHT22;10975;47.872;12.972;2023-07-20T14:30:04;24.20;99.90
21627;DHT22;10975;47.872;12.972;2023-07-20T14:32:31;24.10;99.90
21627;DHT22;10975;47.872;12.972;2023-07-20T14:35:00;24.10;99.90
21627;DHT22;10975;47.872;12.972;2023-07-20T14:37:27;24.10;99.90
21627;DHT22;10975;47.872;12.972;2023-07-20T14:39:55;24.00;99.90
21627;DHT22;10975;47.872;12.972;2023-07-20T14:42:21;24.10;99.90
21627;DHT22;10975;47.872;12.972;2023-07-20T14:44:48;24.10;99.90
21627;DHT22;10975;47.872;12.972;2023-07-20T14:47:15;24.00;99.90
21627;DHT22;10975;47.872;12.972;2023-07-20T14:49:42;24.20;99.90
21627;DHT22;10975;47.872;12.972;2023-07-20T14:52:08;24.50;99.90
21627;DHT22;10975;47.872;12.972;2023-07-20T14:54:38;24.50;99.90
21627;DHT22;10975;47.872;12.972;2023-07-20T14:57:05;24.50;99.90
21627;DHT22;10975;47.872;12.972;2023-07-20T14:59:34;24.30;99.90
21627;DHT22;10975;47.872;12.972;2023-07-20T15:02:00;24.60;99.90
21627;DHT22;10975;47.872;12.972;2023-07-20T15:04:27;24.70;99.90
21627;DHT22;10975;47.872;12.972;2023-07-20T15:06:54;24.80;99.90
21627;DHT22;10975;47.872;12.972;2023-07-20T15:09:21;24.70;99.90
21627;DHT22;10975;47.872;12.972;2023-07-20T15:11:48;24.60;99.90
21627;DHT22;10975;47.872;12.972;2023-07-20T15:14:14;24.40;99.90
21627;DHT22;10975;47.872;12.972;2023-07-20T15:16:41;24.30;99.90
21627;DHT22;10975;47.872;12.972;2023-07-20T15:19:08;24.10;99.90
21627;DHT22;10975;47.872;12.972;2023-07-20T15:21:35;24.00;99.90
21627;DHT22;10975;47.872;12.972;2023-07-20T15:24:02;24.00;99.90
21627;DHT22;10975;47.872;12.972;2023-07-20T15:26:29;24.20;99.90
21627;DHT22;10975;47.872;12.972;2023-07-20T15:28:57;24.50;99.90
21627;DHT22;10975;47.872;12.972;2023-07-20T15:31:24;24.90;99.90
21627;DHT22;10975;47.872;12.972;2023-07-20T15:33:55;25.10;99.90
21627;DHT22;10975;47.872;12.972;2023-07-20T15:36:22;25.20;99.90